Time;durP1;ratioP1;P1;durP2;ratioP2;P2;SDS_P1;SDS_P2;PMS_P1;PMS_P2;Temp;Humidity;BMP_temperature;BMP_pressure;BME280_temperature;BME280_humidity;BME280_pressure;Samples;Min_cycle;Max_cycle;Signal;HPM_P1;HPM_P2
2022/11/16 07:06:23;;;;;;;5.70;3.67;;;;;;;9.76;100.00;99740.41;5274531;27;2418842;-69
2022/11/16 07:08:55;;;;;;;9.85;3.97;;;;;;;9.69;100.00;99737.22;5341850;28;20030;-69
2022/11/16 07:11:26;;;;;;;10.40;4.03;;;;;;;9.73;100.00;99735.50;5338644;27;20028;-69
2022/11/16 07:13:58;;;;;;;7.70;3.85;;;;;;;9.78;100.00;99738.97;5343579;27;20099;-70
2022/11/16 07:16:29;;;;;;;4.95;4.40;;;;;;;9.80;100.00;99749.72;5342947;27;20092;-69
2022/11/16 07:19:01;;;;;;;9.95;4.00;;;;;;;9.82;100.00;99747.47;5342754;27;20094;-69
2022/11/16 07:21:32;;;;;;;8.50;5.53;;;;;;;9.78;100.00;99747.25;5343180;27;20027;-69
2022/11/16 07:24:04;;;;;;;11.88;6.95;;;;;;;9.75;100.00;99749.84;5341764;28;20038;-69
2022/11/16 07:26:35;;;;;;;10.65;5.80;;;;;;;9.72;100.00;99750.47;5343377;27;20076;-69
2022/11/16 07:29:07;;;;;;;9.93;5.65;;;;;;;9.76;100.00;99754.25;5343064;28;20415;-69
2022/11/16 07:31:38;;;;;;;9.63;5.30;;;;;;;9.77;100.00;99758.66;5342124;28;20031;-69
2022/11/16 07:34:10;;;;;;;12.70;5.85;;;;;;;9.71;100.00;99760.72;5343029;27;20024;-69
2022/11/16 07:36:41;;;;;;;6.97;5.47;;;;;;;9.79;100.00;99757.22;5343442;28;20031;-69
2022/11/16 07:39:12;;;;;;;12.05;6.00;;;;;;;9.69;100.00;99763.00;5341620;27;20073;-69
2022/11/16 07:41:45;;;;;;;6.75;5.40;;;;;;;9.68;100.00;99766.06;5342286;28;20133;-69
2022/11/16 07:44:17;;;;;;;9.95;6.30;;;;;;;9.65;100.00;99763.91;5340989;28;20053;-70
2022/11/16 07:46:48;;;;;;;12.38;6.60;;;;;;;9.68;100.00;99766.06;5342599;27;20177;-72
2022/11/16 07:49:19;;;;;;;10.52;6.03;;;;;;;9.76;100.00;99768.09;5342156;28;20022;-72
2022/11/16 07:51:50;;;;;;;10.57;6.45;;;;;;;9.75;100.00;99772.00;5343007;27;20023;-72
2022/11/16 07:54:22;;;;;;;11.80;5.38;;;;;;;9.79;100.00;99778.53;5341685;28;20051;-72
2022/11/16 07:56:53;;;;;;;8.27;6.00;;;;;;;9.72;100.00;99780.94;5342396;28;20028;-72
2022/11/16 07:59:26;;;;;;;9.13;6.13;;;;;;;9.82;100.00;99782.63;5341850;27;20474;-72
2022/11/16 08:01:58;;;;;;;8.60;4.82;;;;;;;9.83;100.00;99787.06;5342370;27;20072;-72
2022/11/16 08:04:29;;;;;;;9.70;5.03;;;;;;;9.89;100.00;99789.38;5331720;28;20887;-72
2022/11/16 08:07:00;;;;;;;14.43;5.68;;;;;;;9.84;100.00;99797.00;5339893;28;20030;-72
2022/11/16 08:09:33;;;;;;;20.77;14.82;;;;;;;9.86;100.00;99786.44;5342267;27;20035;-72
2022/11/16 08:12:05;;;;;;;5.60;3.90;;;;;;;9.89;100.00;99791.34;5342684;27;20424;-72
2022/11/16 08:14:36;;;;;;;5.97;3.55;;;;;;;9.90;100.00;99798.53;5341110;28;20020;-71
2022/11/16 08:17:07;;;;;;;8.13;3.75;;;;;;;9.94;100.00;99791.22;5331111;28;20469;-72
2022/11/16 08:19:41;;;;;;;7.55;3.30;;;;;;;9.97;100.00;99793.38;5327389;28;20031;-72
2022/11/16 08:22:12;;;;;;;7.03;3.53;;;;;;;9.90;100.00;99791.03;5327292;28;20111;-73
2022/11/16 08:24:43;;;;;;;7.95;3.25;;;;;;;9.95;100.00;99792.88;5328095;28;20042;-72
2022/11/16 08:27:16;;;;;;;7.47;3.15;;;;;;;10.02;100.00;99799.66;5327466;28;20156;-74
2022/11/16 08:29:47;;;;;;;6.78;2.80;;;;;;;10.25;100.00;99796.88;5327293;28;20110;-74
2022/11/16 08:32:18;;;;;;;9.88;3.65;;;;;;;10.09;100.00;99793.66;5326857;28;20106;-76
2022/11/16 08:34:50;;;;;;;7.32;4.10;;;;;;;10.18;100.00;99796.53;5326998;28;20040;-76
2022/11/16 08:37:21;;;;;;;8.02;3.28;;;;;;;10.08;100.00;99792.03;5328463;28;20015;-77
2022/11/16 08:39:53;;;;;;;12.00;6.35;;;;;;;10.20;100.00;99794.22;5317521;28;20111;-76
2022/11/16 08:42:27;;;;;;;9.02;3.95;;;;;;;10.17;100.00;99794.88;5326965;28;20020;-75
2022/11/16 08:44:59;;;;;;;9.48;4.10;;;;;;;10.12;100.00;99783.91;5327851;28;20367;-76
2022/11/16 08:47:31;;;;;;;8.60;4.57;;;;;;;10.16;100.00;99793.25;5327889;28;20028;-76
2022/11/16 08:50:03;;;;;;;9.13;3.20;;;;;;;10.23;100.00;99804.72;5327183;28;20099;-75
2022/11/16 08:52:34;;;;;;;11.45;4.82;;;;;;;10.23;100.00;99801.94;5327956;28;20042;-76
2022/11/16 08:55:05;;;;;;;11.25;4.00;;;;;;;10.20;100.00;99806.16;5326996;28;20081;-76
2022/11/16 08:57:37;;;;;;;8.43;2.75;;;;;;;10.28;100.00;99801.84;5326976;28;20027;-76
2022/11/16 09:00:10;;;;;;;9.82;3.65;;;;;;;10.28;100.00;99803.78;5327497;28;20119;-76
2022/11/16 09:02:41;;;;;;;8.75;2.95;;;;;;;10.24;100.00;99800.81;5326289;28;20102;-76
2022/11/16 09:05:12;;;;;;;10.10;3.53;;;;;;;10.32;100.00;99802.84;5326384;28;20068;-76
2022/11/16 09:07:44;;;;;;;6.97;2.67;;;;;;;10.35;100.00;99806.94;5327125;28;20428;-76
2022/11/16 09:10:17;;;;;;;20.40;7.70;;;;;;;10.24;100.00;99807.16;5326714;28;20360;-75
2022/11/16 09:12:49;;;;;;;11.10;3.25;;;;;;;10.30;100.00;99805.09;5327441;28;20054;-76
2022/11/16 09:15:20;;;;;;;6.32;2.80;;;;;;;10.29;100.00;99802.66;5326875;28;20055;-76
2022/11/16 09:17:53;;;;;;;7.00;3.70;;;;;;;10.38;100.00;99811.84;5326602;28;20378;-75
2022/11/16 09:20:25;;;;;;;6.20;3.08;;;;;;;10.36;100.00;99812.19;5326578;28;20024;-74
2022/11/16 09:22:56;;;;;;;9.68;4.50;;;;;;;10.34;100.00;99813.63;5326999;28;20351;-75
2022/11/16 09:25:27;;;;;;;7.53;2.95;;;;;;;10.35;100.00;99824.38;5325576;28;20023;-75
2022/11/16 09:27:59;;;;;;;8.30;2.92;;;;;;;10.42;100.00;99813.69;5326236;28;20405;-76
2022/11/16 09:30:30;;;;;;;8.30;2.80;;;;;;;10.38;100.00;99812.69;5326777;28;20023;-76
2022/11/16 09:33:01;;;;;;;8.20;3.00;;;;;;;10.50;100.00;99808.53;5326322;28;20394;-76
2022/11/16 09:35:33;;;;;;;8.32;2.60;;;;;;;10.42;100.00;99819.25;5326296;28;20035;-75
2022/11/16 09:38:08;;;;;;;8.05;2.90;;;;;;;10.43;100.00;99814.50;5324666;28;20067;-74
2022/11/16 09:40:43;;;;;;;8.57;3.88;;;;;;;10.48;100.00;99811.66;5326205;27;20036;-75
2022/11/16 09:43:33;;;;;;;9.80;4.10;;;;;;;10.50;100.00;99814.09;5326180;28;20035;-75
2022/11/16 09:46:25;;;;;;;6.80;2.70;;;;;;;10.55;100.00;99806.47;5324416;28;20039;-76
2022/11/16 09:49:00;;;;;;;5.95;2.60;;;;;;;10.59;100.00;99815.78;5313343;28;20040;-75
2022/11/16 09:51:33;;;;;;;8.90;2.97;;;;;;;10.55;100.00;99813.97;5306880;28;20383;-74
2022/11/16 09:54:10;;;;;;;7.45;3.30;;;;;;;10.63;100.00;99825.13;5325759;28;20020;-75
2022/11/16 09:56:44;;;;;;;5.50;2.55;;;;;;;10.61;100.00;99823.81;5330547;28;20081;-75
2022/11/16 09:59:22;;;;;;;5.70;2.58;;;;;;;10.61;99.74;99826.59;5331571;28;20019;-74
2022/11/16 10:01:53;;;;;;;5.97;2.58;;;;;;;10.69;99.69;99823.06;5331479;28;20049;-76
2022/11/16 10:04:48;;;;;;;7.97;2.83;;;;;;;10.82;99.25;99816.59;5325113;28;20056;-75
2022/11/16 10:07:42;;;;;;;5.90;2.20;;;;;;;10.78;98.71;99825.88;5327605;28;20030;-76
2022/11/16 10:10:15;;;;;;;7.38;2.83;;;;;;;10.80;98.72;99827.19;5325604;28;20024;-75
2022/11/16 10:12:54;;;;;;;7.38;3.03;;;;;;;10.77;97.17;99832.56;5325905;28;20019;-75
2022/11/16 10:15:31;;;;;;;7.78;2.25;;;;;;;10.83;97.34;99826.56;5324770;28;20081;-76
2022/11/16 10:18:14;;;;;;;9.10;2.45;;;;;;;10.86;95.89;99814.84;5322118;28;20023;-76
2022/11/16 10:21:04;;;;;;;4.22;2.20;;;;;;;10.81;95.41;99819.69;5324768;28;20024;-75
2022/11/16 10:24:03;;;;;;;6.25;2.58;;;;;;;10.88;95.93;99825.63;5320048;28;20469;-75
2022/11/16 10:26:52;;;;;;;4.15;2.20;;;;;;;10.92;96.11;99817.50;5306463;28;20028;-76
2022/11/16 10:29:32;;;;;;;7.20;2.40;;;;;;;10.93;96.21;99810.78;5325540;28;20050;-74
2022/11/16 10:32:12;;;;;;;5.53;2.08;;;;;;;11.01;95.59;99813.63;5305405;28;20425;-77
2022/11/16 10:35:10;;;;;;;6.90;3.30;;;;;;;11.04;95.54;99818.56;5324736;28;20039;-75
2022/11/16 10:37:51;;;;;;;7.32;2.42;;;;;;;11.07;95.15;99820.69;5325333;28;20023;-76
2022/11/16 10:40:36;;;;;;;6.65;2.03;;;;;;;11.04;92.33;99817.72;5324639;28;20103;-74
2022/11/16 10:43:16;;;;;;;43.57;37.23;;;;;;;11.10;93.76;99822.00;5324785;28;20016;-74
2022/11/16 10:45:56;;;;;;;8.40;3.33;;;;;;;11.16;94.22;99823.50;5324762;28;20082;-77
2022/11/16 10:48:55;;;;;;;10.32;2.60;;;;;;;11.20;92.37;99815.38;5323680;28;20554;-77
2022/11/16 10:51:26;;;;;;;7.15;2.50;;;;;;;11.12;92.29;99803.09;5323376;28;20027;-73
2022/11/16 10:53:57;;;;;;;4.25;1.80;;;;;;;11.17;91.58;99811.28;5324799;28;20040;-77
2022/11/16 10:56:39;;;;;;;6.18;1.73;;;;;;;11.29;92.68;99808.69;5324457;28;20034;-74
2022/11/16 10:59:12;;;;;;;8.20;1.95;;;;;;;11.19;90.80;99811.75;5325309;28;20115;-74
2022/11/16 11:01:49;;;;;;;5.43;2.15;;;;;;;11.26;90.92;99822.41;5325134;28;20027;-74
2022/11/16 11:04:26;;;;;;;9.23;2.00;;;;;;;11.35;90.79;99814.09;5323304;28;20036;-72
2022/11/16 11:07:00;;;;;;;5.00;1.92;;;;;;;11.39;90.12;99812.34;5322100;28;20024;-74
2022/11/16 11:09:33;;;;;;;7.35;2.10;;;;;;;11.41;90.03;99805.31;5323556;28;20038;-74
2022/11/16 11:15:12;;;;;;;6.72;2.63;;;;;;;11.50;89.00;99803.41;5325396;28;20386;-73
2022/11/16 11:17:46;;;;;;;7.57;2.47;;;;;;;11.52;89.76;99808.63;5324421;28;20034;-73
2022/11/16 11:20:23;;;;;;;9.93;2.42;;;;;;;11.47;88.65;99803.22;5324080;28;20024;-70
2022/11/16 11:23:01;;;;;;;8.98;2.05;;;;;;;11.49;88.68;99800.94;5314150;28;20024;-70
2022/11/16 11:25:55;;;;;;;6.85;2.13;;;;;;;11.46;89.18;99805.19;5323146;28;20031;-70
2022/11/16 11:28:37;;;;;;;9.52;2.92;;;;;;;11.45;89.01;99803.56;5325054;28;20553;-70
2022/11/16 11:31:21;;;;;;;5.90;2.30;;;;;;;11.41;88.65;99798.97;5324017;28;20355;-70
2022/11/16 11:33:58;;;;;;;6.70;1.85;;;;;;;11.41;89.54;99796.19;5324682;28;20025;-70
2022/11/16 11:36:38;;;;;;;10.70;2.17;;;;;;;11.39;88.27;99782.63;5324169;28;20032;-70
2022/11/16 11:39:12;;;;;;;55.30;49.45;;;;;;;11.47;88.85;99786.56;5321823;28;20040;-70
2022/11/16 11:41:45;;;;;;;21.55;15.90;;;;;;;11.56;90.35;99787.41;5324535;28;20043;-70
2022/11/16 11:44:19;;;;;;;7.78;2.70;;;;;;;11.52;89.95;99783.63;5324035;28;20355;-72
2022/11/16 11:46:55;;;;;;;5.20;1.98;;;;;;;11.48;88.75;99782.66;5324468;28;20019;-72
2022/11/16 11:49:31;;;;;;;8.13;2.15;;;;;;;11.54;88.94;99781.38;5325226;28;20069;-72
2022/11/16 11:52:13;;;;;;;6.63;2.33;;;;;;;11.53;89.11;99780.56;5325808;28;20420;-71
2022/11/16 11:54:50;;;;;;;4.97;2.08;;;;;;;11.58;89.19;99765.72;5328340;28;20035;-71
2022/11/16 11:57:23;;;;;;;6.35;2.22;;;;;;;11.64;88.86;99767.19;5328129;28;20402;-71
2022/11/16 11:59:55;;;;;;;5.63;2.30;;;;;;;11.80;87.51;99750.06;5327035;28;20080;-73
2022/11/16 12:02:51;;;;;;;5.15;1.98;;;;;;;11.83;87.33;99749.41;5328082;28;20467;-71
2022/11/16 12:05:52;;;;;;;4.68;2.13;;;;;;;12.01;87.91;99747.50;5326039;28;20507;-71
2022/11/16 12:08:47;;;;;;;5.57;2.45;;;;;;;11.99;86.35;99753.41;5328451;28;20084;-71
2022/11/16 12:11:49;;;;;;;6.35;2.08;;;;;;;12.03;86.02;99748.81;5307512;28;20028;-70
2022/11/16 12:14:45;;;;;;;6.32;2.92;;;;;;;12.02;86.37;99738.03;5309543;28;20378;-71
2022/11/16 12:17:44;;;;;;;5.43;2.40;;;;;;;12.02;86.34;99727.72;5328188;28;20026;-71
2022/11/16 12:20:39;;;;;;;5.50;2.53;;;;;;;12.12;86.21;99734.94;5327298;28;20039;-70
2022/11/16 12:23:17;;;;;;;5.25;2.00;;;;;;;12.15;84.72;99731.47;5328018;28;20027;-71
2022/11/16 12:26:19;;;;;;;6.57;2.10;;;;;;;12.23;85.01;99724.28;5328323;28;20108;-70
2022/11/16 12:28:59;;;;;;;5.18;1.95;;;;;;;12.25;84.57;99731.16;5327415;28;20034;-70
2022/11/16 12:31:45;;;;;;;17.35;13.82;;;;;;;12.27;84.20;99723.31;5327747;28;20023;-70
2022/11/16 12:34:35;;;;;;;44.78;31.02;;;;;;;12.25;83.46;99716.44;5327120;28;20027;-71
2022/11/16 12:37:17;;;;;;;5.97;2.53;;;;;;;12.18;84.15;99712.19;5327749;28;20020;-71
2022/11/16 12:40:34;;;;;;;5.25;2.40;;;;;;;12.18;82.99;99720.53;5328027;28;20036;-71
2022/11/16 12:43:17;;;;;;;4.95;1.90;;;;;;;12.12;82.75;99701.56;5262341;28;20036;-70
2022/11/16 12:46:00;;;;;;;4.63;1.95;;;;;;;12.15;83.06;99718.41;5321511;28;20075;-71
2022/11/16 12:49:07;;;;;;;4.93;2.80;;;;;;;12.20;83.07;99699.94;5324033;28;20043;-72
2022/11/16 12:52:04;;;;;;;3.33;1.92;;;;;;;12.35;84.87;99696.66;5306409;28;20031;-72
2022/11/16 12:54:47;;;;;;;4.82;2.15;;;;;;;12.35;83.02;99686.34;5305640;28;20065;-70
2022/11/16 12:57:37;;;;;;;5.22;2.05;;;;;;;12.37;83.54;99691.56;5306376;28;20190;-73
2022/11/16 13:00:12;;;;;;;6.53;2.67;;;;;;;12.35;83.09;99688.31;5306540;28;20032;-71
2022/11/16 13:03:03;;;;;;;6.25;2.00;;;;;;;12.31;82.76;99684.53;5307815;28;20024;-72
2022/11/16 13:05:48;;;;;;;4.95;2.05;;;;;;;12.44;84.21;99685.50;5326912;28;20097;-71
2022/11/16 13:08:40;;;;;;;7.75;2.53;;;;;;;12.40;84.07;99679.78;5327278;28;20031;-74
2022/11/16 13:11:34;;;;;;;4.57;2.08;;;;;;;12.40;82.91;99682.56;5327681;27;20419;-72
2022/11/16 13:14:13;;;;;;;6.32;1.92;;;;;;;12.31;82.55;99688.13;5327035;28;20391;-72
2022/11/16 13:16:48;;;;;;;10.32;2.80;;;;;;;12.35;83.24;99677.19;5311731;28;20024;-72
2022/11/16 13:19:20;;;;;;;6.97;2.65;;;;;;;12.46;84.50;99681.25;5305918;28;20107;-75
2022/11/16 13:22:12;;;;;;;6.28;2.30;;;;;;;12.47;83.28;99680.06;5326832;28;20059;-72
2022/11/16 13:24:52;;;;;;;8.73;2.63;;;;;;;12.50;83.11;99673.03;5305072;28;20035;-72
2022/11/16 13:27:23;;;;;;;4.88;2.22;;;;;;;12.62;82.92;99671.22;5324518;28;20039;-71
2022/11/16 13:30:17;;;;;;;6.75;2.38;;;;;;;12.62;82.51;99676.75;5326045;28;20035;-71
2022/11/16 13:33:01;;;;;;;5.10;2.30;;;;;;;12.53;83.02;99673.22;5327056;28;20036;-72
2022/11/16 13:35:36;;;;;;;4.65;1.95;;;;;;;12.63;82.70;99680.38;5326580;28;20043;-72
2022/11/16 13:38:12;;;;;;;5.57;2.05;;;;;;;12.69;82.21;99670.72;5324747;28;20359;-71
2022/11/16 13:40:43;;;;;;;4.07;2.20;;;;;;;12.82;82.41;99675.22;5326008;28;20023;-71
2022/11/16 13:43:17;;;;;;;6.75;2.58;;;;;;;12.73;82.13;99676.41;5327299;28;20027;-71
2022/11/16 13:45:48;;;;;;;5.97;1.63;;;;;;;12.91;82.32;99675.22;5325352;28;20020;-72
2022/11/16 13:48:36;;;;;;;5.28;2.53;;;;;;;12.87;80.70;99671.47;5326487;28;20038;-72
2022/11/16 13:51:18;;;;;;;7.80;2.15;;;;;;;12.92;80.38;99667.69;5326068;28;20472;-71
2022/11/16 13:53:52;;;;;;;45.13;40.17;;;;;;;13.09;80.36;99666.75;5326171;28;20027;-71
2022/11/16 13:56:23;;;;;;;9.68;4.55;;;;;;;13.16;79.75;99672.63;5326180;28;20463;-71
2022/11/16 13:58:57;;;;;;;8.07;2.90;;;;;;;13.26;79.76;99661.09;5325516;28;20031;-72
2022/11/16 14:02:24;;;;;;;4.20;2.00;;;;;;;13.21;78.50;99664.91;5325902;27;20028;-70
2022/11/16 14:05:00;;;;;;;7.18;3.28;;;;;;;13.26;79.99;99666.69;5325131;28;20126;-70
2022/11/16 14:07:45;;;;;;;5.30;2.65;;;;;;;13.10;77.97;99674.78;5325927;28;20370;-71
2022/11/16 14:10:31;;;;;;;7.30;2.80;;;;;;;13.04;77.86;99670.56;5326111;28;20038;-71
2022/11/16 14:13:04;;;;;;;6.53;2.25;;;;;;;13.02;77.91;99668.13;5304646;28;20540;-71
2022/11/16 14:15:37;;;;;;;9.07;3.08;;;;;;;13.09;77.90;99655.63;5325383;27;20077;-73
2022/11/16 14:18:08;;;;;;;11.10;8.35;;;;;;;12.99;77.64;99657.66;5317603;28;20031;-70
2022/11/16 14:20:57;;;;;;;7.57;2.70;;;;;;;12.94;77.74;99643.94;5324893;28;20472;-71
2022/11/16 14:23:50;;;;;;;4.18;2.08;;;;;;;12.86;77.53;99644.78;5325290;28;20024;-71
2022/11/16 14:26:27;;;;;;;7.05;2.17;;;;;;;12.75;78.22;99643.50;5324773;28;20027;-71
2022/11/16 14:29:31;;;;;;;5.63;1.67;;;;;;;12.85;78.43;99637.56;5324525;28;20028;-71
2022/11/16 14:32:15;;;;;;;4.38;2.05;;;;;;;12.99;80.37;99640.97;5325131;28;20110;-71
2022/11/16 14:34:50;;;;;;;5.22;2.08;;;;;;;13.00;80.03;99639.78;5324705;28;20098;-71
2022/11/16 14:37:23;;;;;;;8.30;3.45;;;;;;;12.83;78.33;99637.09;5325200;28;20027;-71
2022/11/16 14:40:07;;;;;;;6.30;2.10;;;;;;;12.81;78.18;99631.06;5321929;28;20494;-71
2022/11/16 14:43:05;;;;;;;8.57;2.28;;;;;;;12.77;78.22;99628.13;5325090;28;20067;-71
2022/11/16 14:45:37;;;;;;;6.15;2.47;;;;;;;12.76;79.58;99620.94;5323787;28;20478;-72
2022/11/16 14:48:17;;;;;;;5.15;2.65;;;;;;;12.76;79.35;99622.91;5323809;28;20028;-73
2022/11/16 14:51:05;;;;;;;7.68;3.00;;;;;;;12.68;78.51;99619.00;5325226;28;20111;-72
2022/11/16 14:53:40;;;;;;;8.02;5.28;;;;;;;12.71;79.35;99601.66;5320484;28;20028;-73
2022/11/16 14:56:13;;;;;;;;;;;;;;;12.77;79.79;99610.63;5325020;28;20020;-74
2022/11/16 14:59:01;;;;;;;5.55;2.20;;;;;;;12.64;79.14;99615.25;5324906;28;20273;-71
2022/11/16 15:01:37;;;;;;;5.75;2.38;;;;;;;12.59;79.27;99612.66;5320805;28;20867;-73
2022/11/16 15:04:10;;;;;;;7.07;3.05;;;;;;;12.56;79.41;99614.13;5324405;28;20035;-73
2022/11/16 15:06:50;;;;;;;5.82;2.28;;;;;;;12.61;80.15;99607.59;5324909;28;20031;-72
2022/11/16 15:09:46;;;;;;;9.60;2.30;;;;;;;12.60;79.66;99595.66;5323859;28;20449;-72
2022/11/16 15:15:10;;;;;;;7.15;2.83;;;;;;;12.46;78.72;99610.91;5324358;28;20036;-70
2022/11/16 15:17:52;;;;;;;6.50;2.17;;;;;;;12.43;79.11;99601.28;5323016;28;20024;-69
2022/11/16 15:20:25;;;;;;;8.75;3.08;;;;;;;12.39;79.30;99586.38;5324599;28;20055;-71
2022/11/16 15:22:58;;;;;;;8.20;3.00;;;;;;;12.34;79.63;99561.56;5323937;28;20028;-71
2022/11/16 15:25:34;;;;;;;8.75;3.55;;;;;;;12.30;79.68;99566.16;5305680;28;20101;-71
2022/11/16 15:28:15;;;;;;;11.45;4.85;;;;;;;12.31;80.21;99588.06;5316778;28;20034;-71
2022/11/16 15:31:03;;;;;;;7.97;2.95;;;;;;;12.34;80.08;99583.78;5327379;28;20028;-71
2022/11/16 15:33:38;;;;;;;12.32;4.70;;;;;;;12.37;81.21;99578.41;5327871;28;20084;-72
2022/11/16 15:36:39;;;;;;;28.80;23.48;;;;;;;12.40;80.59;99574.13;5326587;28;20051;-73
2022/11/16 15:39:19;;;;;;;11.77;4.00;;;;;;;12.34;80.89;99570.69;5326090;28;20462;-71
2022/11/16 15:41:51;;;;;;;5.90;2.97;;;;;;;12.49;81.59;99569.34;5328488;28;20018;-71
2022/11/16 15:44:23;;;;;;;4.35;2.17;;;;;;;12.46;82.19;99555.31;5327905;28;20385;-70
2022/11/16 15:46:55;;;;;;;5.80;2.63;;;;;;;12.35;81.20;99549.31;5328301;28;20047;-70
2022/11/16 15:49:37;;;;;;;7.30;3.70;;;;;;;12.39;81.99;99539.13;5328483;28;20390;-70
2022/11/16 15:52:10;;;;;;;8.27;2.83;;;;;;;12.31;81.03;99538.00;5328137;28;20057;-80
2022/11/16 15:55:02;;;;;;;4.93;3.30;;;;;;;12.24;81.54;99548.00;5328596;28;20035;-73
2022/11/16 15:57:35;;;;;;;7.20;2.40;;;;;;;12.17;80.67;99532.69;5326363;28;20104;-72
2022/11/16 16:00:22;;;;;;;10.48;2.85;;;;;;;12.29;82.00;99522.81;5328189;28;20038;-72
2022/11/16 16:03:02;;;;;;;5.53;2.15;;;;;;;12.20;81.71;99530.38;5328103;28;20015;-69
2022/11/16 16:05:35;;;;;;;7.55;2.58;;;;;;;12.40;83.86;99515.75;5326500;28;20043;-70
2022/11/16 16:08:24;;;;;;;14.65;3.72;;;;;;;12.16;82.12;99503.22;5328805;28;20020;-71
2022/11/16 16:11:01;;;;;;;8.00;2.95;;;;;;;12.03;82.10;99509.03;5327932;28;20128;-71
2022/11/16 16:13:55;;;;;;;5.72;2.92;;;;;;;12.01;82.67;99503.78;5325645;28;20459;-72
2022/11/16 16:16:30;;;;;;;7.10;3.50;;;;;;;12.12;84.75;99495.91;5327723;28;20028;-71
2022/11/16 16:19:05;;;;;;;7.77;3.20;;;;;;;11.99;83.09;99497.75;5325447;28;20019;-72
2022/11/16 16:21:42;;;;;;;5.18;2.50;;;;;;;12.03;83.80;99486.78;5327936;27;20026;-72
2022/11/16 16:24:40;;;;;;;8.68;2.97;;;;;;;12.12;84.32;99496.72;5325883;28;20023;-71
2022/11/16 16:27:17;;;;;;;7.80;3.20;;;;;;;12.17;85.16;99496.53;5326637;28;20062;-73
2022/11/16 16:29:50;;;;;;;8.70;3.55;;;;;;;12.04;84.00;99489.25;5327889;28;20446;-75
2022/11/16 16:32:33;;;;;;;10.38;4.30;;;;;;;12.10;84.53;99493.47;5313022;28;20061;-73
2022/11/16 16:35:07;;;;;;;15.77;5.03;;;;;;;11.99;83.76;99496.94;5325952;28;20027;-70
2022/11/16 16:37:38;;;;;;;18.02;6.80;;;;;;;12.03;84.12;99495.13;5325393;28;20034;-69
